Terminal Aerodrome Forecast
Issued by NWS

Home | Current Version | Previous Version | Text Only | Print | Product List | Glossary On
Versions: 1 2 3 4 5 6 7 8 9 10 11
000
FTUS45 KVEF 270500
TAFVGT
TAF
KVGT 270539Z 2706/2806 35008KT P6SM SCT250
     FM271700 14005KT P6SM FEW150 SCT250
     FM280100 17010KT P6SM FEW150 SCT250=

USA.gov is the U.S. government's official web portal to all federal, state and local government web resources and services.